createdAt,value
2018-07-19T00:04:07.558Z,21.10
2018-07-19T00:09:10.867Z,21.00
2018-07-19T00:14:13.970Z,21.00
2018-07-19T00:19:20.644Z,20.80
2018-07-19T00:24:23.762Z,20.90
2018-07-19T00:29:26.818Z,20.90
2018-07-19T00:34:29.853Z,20.70
2018-07-19T00:39:32.896Z,20.70
2018-07-19T00:44:36.002Z,20.60
2018-07-19T00:49:39.071Z,20.50
2018-07-19T00:54:42.190Z,20.50
2018-07-19T00:59:45.328Z,20.50
2018-07-19T01:04:48.395Z,20.50
2018-07-19T01:09:51.502Z,20.40
2018-07-19T01:14:54.615Z,20.40
2018-07-19T01:19:57.666Z,20.30
2018-07-19T01:25:00.840Z,20.40
2018-07-19T01:30:04.411Z,20.30
2018-07-19T01:35:07.515Z,20.20
2018-07-19T01:40:10.563Z,20.10
2018-07-19T01:45:14.168Z,20.10
2018-07-19T01:50:17.228Z,20.00
2018-07-19T01:55:20.245Z,20.00
2018-07-19T02:00:23.275Z,20.00
2018-07-19T02:05:26.327Z,19.90
2018-07-19T02:10:29.360Z,19.80
2018-07-19T02:15:32.369Z,19.60
2018-07-19T02:20:35.378Z,19.60
2018-07-19T02:25:38.370Z,19.60
2018-07-19T02:30:41.366Z,19.50
2018-07-19T02:35:44.395Z,19.50
2018-07-19T02:40:47.425Z,19.40
2018-07-19T02:45:50.475Z,19.30
2018-07-19T02:50:53.478Z,19.30
2018-07-19T02:55:56.490Z,19.20
2018-07-19T03:00:59.516Z,19.20
2018-07-19T03:06:02.615Z,19.20
2018-07-19T03:11:05.771Z,19.10
2018-07-19T03:16:08.814Z,19.20
2018-07-19T03:21:12.022Z,19.10
2018-07-19T03:26:15.074Z,18.90
2018-07-19T03:31:18.322Z,18.90
2018-07-19T03:36:21.327Z,19.00
2018-07-19T03:41:24.330Z,18.80
2018-07-19T03:46:27.362Z,18.70
2018-07-19T03:51:30.417Z,18.80
2018-07-19T03:56:33.430Z,18.70
2018-07-19T04:01:36.460Z,18.70
2018-07-19T04:06:39.463Z,18.70
2018-07-19T04:11:42.484Z,18.60
2018-07-19T04:16:45.534Z,18.60
2018-07-19T04:21:48.669Z,18.70
2018-07-19T04:26:51.731Z,18.80
2018-07-19T04:31:54.723Z,18.80
2018-07-19T04:36:57.790Z,18.70
2018-07-19T04:42:00.891Z,18.90
2018-07-19T04:47:03.887Z,19.10
2018-07-19T04:52:06.992Z,19.20
2018-07-19T04:57:10.008Z,19.30
2018-07-19T05:02:13.054Z,19.20
2018-07-19T05:07:16.081Z,19.10
2018-07-19T05:12:19.255Z,19.30
2018-07-19T05:17:22.290Z,19.60
2018-07-19T05:22:25.371Z,19.50
2018-07-19T05:27:28.416Z,19.50
2018-07-19T05:32:31.512Z,19.80
2018-07-19T05:37:34.566Z,19.90
2018-07-19T05:42:37.641Z,20.10
2018-07-19T05:47:40.686Z,20.10
2018-07-19T05:52:43.749Z,20.10
2018-07-19T05:57:46.748Z,20.20
2018-07-19T06:02:49.774Z,20.40
2018-07-19T06:07:52.922Z,20.60
2018-07-19T06:12:55.964Z,20.90
2018-07-19T06:17:59.067Z,21.30
2018-07-19T06:23:02.098Z,21.50
2018-07-19T06:28:05.199Z,21.30
2018-07-19T06:33:08.271Z,21.30
2018-07-19T06:38:11.319Z,21.40
2018-07-19T06:43:14.356Z,21.60
2018-07-19T06:48:17.439Z,21.50
2018-07-19T06:53:20.462Z,21.70
2018-07-19T06:58:23.477Z,21.70
2018-07-19T07:03:26.584Z,21.80
2018-07-19T07:08:29.603Z,21.80
2018-07-19T07:13:32.610Z,21.90
2018-07-19T07:18:35.653Z,21.90
2018-07-19T07:23:38.698Z,22.00
2018-07-19T07:28:42.865Z,22.00
2018-07-19T07:33:45.943Z,22.30
2018-07-19T07:38:49.023Z,22.40
2018-07-19T07:43:52.068Z,22.40
2018-07-19T07:48:55.163Z,22.60
2018-07-19T07:53:58.272Z,23.00
2018-07-19T07:59:01.322Z,22.80
2018-07-19T08:04:04.944Z,23.00
2018-07-19T08:09:08.943Z,23.00
2018-07-19T08:14:12.122Z,22.80
2018-07-19T08:19:15.184Z,22.90
2018-07-19T08:24:18.249Z,23.10
2018-07-19T08:29:21.277Z,23.30
2018-07-19T08:39:27.390Z,23.60
2018-07-19T08:44:30.551Z,23.50
2018-07-19T08:49:33.618Z,23.40
2018-07-19T08:54:36.845Z,23.30
2018-07-19T08:59:39.984Z,23.20
2018-07-19T09:04:43.186Z,23.10
2018-07-19T09:09:46.240Z,23.20
2018-07-19T09:14:49.426Z,23.10
2018-07-19T09:19:52.448Z,23.10
2018-07-19T09:24:55.609Z,23.00
2018-07-19T09:29:58.635Z,22.80
2018-07-19T09:35:01.797Z,22.70
2018-07-19T09:40:04.978Z,22.70
2018-07-19T09:45:08.173Z,22.90
2018-07-19T09:50:11.194Z,22.90
2018-07-19T09:55:15.644Z,23.10
2018-07-19T10:00:24.055Z,23.20
2018-07-19T10:05:27.077Z,23.20
2018-07-19T10:10:30.158Z,23.50
2018-07-19T10:15:33.229Z,23.60
2018-07-19T10:20:36.253Z,23.60
2018-07-19T10:25:39.290Z,23.60
2018-07-19T10:30:42.317Z,23.60
2018-07-19T10:35:45.375Z,23.50
2018-07-19T10:40:48.383Z,23.50
2018-07-19T10:45:51.441Z,23.50
2018-07-19T10:55:57.374Z,23.60
2018-07-19T11:01:00.408Z,23.60
2018-07-19T11:06:03.410Z,23.70
2018-07-19T11:11:06.560Z,23.70
2018-07-19T11:16:09.602Z,23.80
2018-07-19T11:21:12.606Z,23.90
2018-07-19T11:26:15.625Z,24.20
2018-07-19T11:31:18.719Z,24.60
2018-07-19T11:36:21.834Z,24.80
2018-07-19T11:41:24.881Z,24.80
2018-07-19T11:46:27.914Z,24.90
2018-07-19T11:51:30.983Z,24.90
2018-07-19T11:56:34.045Z,24.80
2018-07-19T12:01:37.080Z,24.70
2018-07-19T12:06:40.121Z,25.00
2018-07-19T12:11:43.160Z,25.00
2018-07-19T12:16:46.226Z,25.30
2018-07-19T12:26:52.508Z,25.90
2018-07-19T12:31:55.705Z,26.10
2018-07-19T12:36:58.806Z,25.80
2018-07-19T12:42:01.890Z,25.80
2018-07-19T12:47:05.148Z,25.90
2018-07-19T12:52:08.201Z,26.20
2018-07-19T12:57:11.265Z,26.70
2018-07-19T13:02:14.308Z,26.90
2018-07-19T13:07:17.300Z,26.80
2018-07-19T13:12:20.311Z,26.50
2018-07-19T13:17:23.419Z,26.30
2018-07-19T13:22:26.424Z,26.20
2018-07-19T13:27:29.554Z,26.20
2018-07-19T13:32:32.588Z,26.30
2018-07-19T13:37:35.658Z,26.40
2018-07-19T13:42:38.758Z,26.40
2018-07-19T13:47:41.851Z,26.70
2018-07-19T13:52:56.406Z,27.10
2018-07-19T13:57:59.411Z,27.50
2018-07-19T14:03:02.540Z,27.70
2018-07-19T14:08:05.655Z,28.40
2018-07-19T14:13:08.782Z,29.20
2018-07-19T14:18:11.947Z,28.90
2018-07-19T14:23:15.058Z,28.70
2018-07-19T14:28:18.178Z,28.90
2018-07-19T14:33:21.178Z,29.30
2018-07-19T14:38:24.178Z,29.60
2018-07-19T14:43:27.289Z,29.80
2018-07-19T14:48:30.297Z,29.50
2018-07-19T14:53:33.345Z,29.80
2018-07-19T14:58:36.370Z,30.00
2018-07-19T15:03:39.476Z,29.90
2018-07-19T15:08:42.494Z,30.10
2018-07-19T15:13:45.610Z,30.30
2018-07-19T15:18:48.666Z,30.30
2018-07-19T15:23:51.731Z,30.30
2018-07-19T15:28:54.815Z,30.30
2018-07-19T15:33:57.812Z,30.40
2018-07-19T15:39:00.911Z,30.20
2018-07-19T15:44:03.937Z,30.30
2018-07-19T15:49:07.024Z,30.50
2018-07-19T15:54:10.044Z,31.10
2018-07-19T15:59:13.034Z,31.30
2018-07-19T16:04:16.137Z,30.80
2018-07-19T16:09:19.250Z,30.90
2018-07-19T16:14:22.393Z,30.60
2018-07-19T16:19:25.445Z,30.60
2018-07-19T16:24:28.555Z,30.60
2018-07-19T16:29:31.560Z,30.10
2018-07-19T16:34:34.676Z,30.20
2018-07-19T16:39:37.716Z,29.70
2018-07-19T16:44:40.771Z,30.00
2018-07-19T16:49:43.831Z,29.60
2018-07-19T16:54:47.075Z,29.60
2018-07-19T16:59:50.103Z,29.50
2018-07-19T17:04:53.186Z,29.80
2018-07-19T17:09:56.200Z,29.90
2018-07-19T17:14:59.318Z,29.70
2018-07-19T17:20:02.379Z,29.70
2018-07-19T17:25:05.502Z,28.90
2018-07-19T17:30:08.530Z,28.80
2018-07-19T17:35:11.567Z,28.80
2018-07-19T17:40:14.990Z,28.80
2018-07-19T17:45:18.428Z,28.70
2018-07-19T17:50:21.792Z,28.30
2018-07-19T17:55:25.401Z,27.90
2018-07-19T18:00:28.790Z,27.50
2018-07-19T18:05:32.239Z,27.50
2018-07-19T18:15:38.822Z,27.20
2018-07-19T18:20:41.832Z,26.70
2018-07-19T18:25:44.835Z,26.70
2018-07-19T18:30:47.857Z,26.40
2018-07-19T18:35:50.934Z,26.10
2018-07-19T18:40:53.960Z,26.00
2018-07-19T18:45:56.959Z,25.90
2018-07-19T18:50:59.942Z,25.90
2018-07-19T18:56:02.976Z,25.70
2018-07-19T19:06:08.846Z,25.50
2018-07-19T19:11:11.908Z,25.20
2018-07-19T19:16:14.964Z,25.00
2018-07-19T19:26:21.070Z,24.90
2018-07-19T19:31:24.116Z,24.80
2018-07-19T19:36:27.148Z,24.80
2018-07-19T19:41:30.182Z,24.60
2018-07-19T19:46:33.234Z,24.60
2018-07-19T19:51:36.362Z,24.40
2018-07-19T19:56:39.403Z,24.30
2018-07-19T20:01:42.415Z,24.20
2018-07-19T20:06:45.426Z,24.10
2018-07-19T20:11:48.516Z,24.00
2018-07-19T20:21:54.426Z,23.90
2018-07-19T20:26:57.508Z,23.80
2018-07-19T20:32:00.494Z,23.80
2018-07-19T20:37:03.526Z,23.90
2018-07-19T20:42:06.598Z,23.80
2018-07-19T20:47:09.830Z,23.60
2018-07-19T20:52:12.831Z,23.50
2018-07-19T20:57:15.842Z,23.40
2018-07-19T21:02:19.117Z,23.20
2018-07-19T21:07:22.269Z,23.00
2018-07-19T21:12:25.284Z,22.90
2018-07-19T21:17:28.327Z,22.90
2018-07-19T21:22:31.376Z,22.80
2018-07-19T21:27:34.364Z,22.70
2018-07-19T21:32:37.387Z,22.60
2018-07-19T21:37:40.439Z,22.50
2018-07-19T21:42:43.475Z,22.40
2018-07-19T21:47:46.521Z,22.30
2018-07-19T21:52:49.615Z,22.20
2018-07-19T21:57:52.643Z,22.10
2018-07-19T22:02:57.132Z,22.00
2018-07-19T22:08:00.126Z,21.80
2018-07-19T22:13:03.143Z,21.70
2018-07-19T22:18:06.167Z,21.60
2018-07-19T22:23:09.307Z,21.50
2018-07-19T22:28:12.332Z,21.40
2018-07-19T22:33:15.350Z,21.30
2018-07-19T22:38:18.361Z,21.20
2018-07-19T22:43:21.379Z,21.10
2018-07-19T22:48:24.380Z,21.00
2018-07-19T22:53:27.553Z,20.90
2018-07-19T22:58:30.570Z,20.80
2018-07-19T23:03:33.662Z,20.80
2018-07-19T23:08:36.688Z,20.70
2018-07-19T23:13:39.748Z,20.70
2018-07-19T23:18:42.773Z,20.60
2018-07-19T23:23:45.798Z,20.60
2018-07-19T23:28:48.809Z,20.50
2018-07-19T23:33:51.880Z,20.40
2018-07-19T23:38:57.788Z,20.40
2018-07-19T23:44:05.142Z,20.30
2018-07-19T23:49:08.222Z,20.30
2018-07-19T23:54:11.275Z,20.30
2018-07-19T23:59:14.308Z,20.20
